sensor_id;sensor_type;location;lat;lon;timestamp;P1;durP1;ratioP1;P2;durP2;ratioP2
18224;SDS011;9237;48.590;8.854;2023-06-22T00:01:15;0.50;;;0.50;;
18224;SDS011;9237;48.590;8.854;2023-06-22T00:03:42;0.50;;;0.50;;
18224;SDS011;9237;48.590;8.854;2023-06-22T00:06:09;0.57;;;0.57;;
18224;SDS011;9237;48.590;8.854;2023-06-22T00:08:36;0.50;;;0.50;;
18224;SDS011;9237;48.590;8.854;2023-06-22T00:11:04;0.50;;;0.50;;
18224;SDS011;9237;48.590;8.854;2023-06-22T00:13:31;0.50;;;0.50;;
18224;SDS011;9237;48.590;8.854;2023-06-22T00:15:57;0.60;;;0.60;;
18224;SDS011;9237;48.590;8.854;2023-06-22T00:18:24;0.50;;;0.50;;
18224;SDS011;9237;48.590;8.854;2023-06-22T00:20:53;0.50;;;0.50;;
18224;SDS011;9237;48.590;8.854;2023-06-22T00:23:23;0.50;;;0.50;;
18224;SDS011;9237;48.590;8.854;2023-06-22T00:25:50;0.50;;;0.50;;
18224;SDS011;9237;48.590;8.854;2023-06-22T00:28:19;0.50;;;0.50;;
18224;SDS011;9237;48.590;8.854;2023-06-22T00:30:46;0.50;;;0.50;;
18224;SDS011;9237;48.590;8.854;2023-06-22T00:33:14;0.50;;;0.50;;
18224;SDS011;9237;48.590;8.854;2023-06-22T00:35:41;0.50;;;0.50;;
18224;SDS011;9237;48.590;8.854;2023-06-22T00:38:07;0.50;;;0.50;;
18224;SDS011;9237;48.590;8.854;2023-06-22T00:40:34;0.60;;;0.60;;
18224;SDS011;9237;48.590;8.854;2023-06-22T00:43:02;0.60;;;0.60;;
18224;SDS011;9237;48.590;8.854;2023-06-22T00:45:31;0.60;;;0.60;;
18224;SDS011;9237;48.590;8.854;2023-06-22T00:47:57;0.50;;;0.50;;
18224;SDS011;9237;48.590;8.854;2023-06-22T00:50:25;0.60;;;0.60;;
18224;SDS011;9237;48.590;8.854;2023-06-22T00:52:54;0.60;;;0.60;;
18224;SDS011;9237;48.590;8.854;2023-06-22T00:55:23;0.50;;;0.50;;
18224;SDS011;9237;48.590;8.854;2023-06-22T00:57:51;0.50;;;0.50;;
18224;SDS011;9237;48.590;8.854;2023-06-22T01:00:20;0.50;;;0.50;;
18224;SDS011;9237;48.590;8.854;2023-06-22T01:02:50;0.50;;;0.50;;
18224;SDS011;9237;48.590;8.854;2023-06-22T01:05:18;0.50;;;0.50;;
18224;SDS011;9237;48.590;8.854;2023-06-22T01:07:49;0.50;;;0.50;;
18224;SDS011;9237;48.590;8.854;2023-06-22T01:10:27;0.50;;;0.50;;
18224;SDS011;9237;48.590;8.854;2023-06-22T01:13:00;0.50;;;0.50;;
18224;SDS011;9237;48.590;8.854;2023-06-22T01:15:30;0.60;;;0.60;;
18224;SDS011;9237;48.590;8.854;2023-06-22T01:18:04;0.57;;;0.57;;
18224;SDS011;9237;48.590;8.854;2023-06-22T01:20:32;0.50;;;0.50;;
18224;SDS011;9237;48.590;8.854;2023-06-22T01:23:05;0.50;;;0.50;;
18224;SDS011;9237;48.590;8.854;2023-06-22T01:25:39;0.57;;;0.57;;
18224;SDS011;9237;48.590;8.854;2023-06-22T01:28:18;0.50;;;0.50;;
18224;SDS011;9237;48.590;8.854;2023-06-22T01:30:56;0.53;;;0.53;;
18224;SDS011;9237;48.590;8.854;2023-06-22T01:33:31;0.60;;;0.60;;
18224;SDS011;9237;48.590;8.854;2023-06-22T01:36:01;0.50;;;0.50;;
18224;SDS011;9237;48.590;8.854;2023-06-22T01:38:29;0.60;;;0.60;;
18224;SDS011;9237;48.590;8.854;2023-06-22T01:40:57;0.50;;;0.50;;
18224;SDS011;9237;48.590;8.854;2023-06-22T01:43:26;0.60;;;0.60;;
18224;SDS011;9237;48.590;8.854;2023-06-22T01:45:55;0.60;;;0.60;;
18224;SDS011;9237;48.590;8.854;2023-06-22T01:48:23;0.50;;;0.50;;
18224;SDS011;9237;48.590;8.854;2023-06-22T01:50:51;0.60;;;0.60;;
18224;SDS011;9237;48.590;8.854;2023-06-22T01:53:18;0.70;;;0.70;;
18224;SDS011;9237;48.590;8.854;2023-06-22T01:55:46;0.60;;;0.60;;
18224;SDS011;9237;48.590;8.854;2023-06-22T01:58:13;0.70;;;0.70;;
18224;SDS011;9237;48.590;8.854;2023-06-22T02:00:40;0.60;;;0.60;;
18224;SDS011;9237;48.590;8.854;2023-06-22T02:03:13;0.60;;;0.60;;
18224;SDS011;9237;48.590;8.854;2023-06-22T02:05:47;0.60;;;0.60;;
18224;SDS011;9237;48.590;8.854;2023-06-22T02:08:19;0.70;;;0.70;;
18224;SDS011;9237;48.590;8.854;2023-06-22T02:10:48;0.60;;;0.60;;
18224;SDS011;9237;48.590;8.854;2023-06-22T02:13:16;0.60;;;0.60;;
18224;SDS011;9237;48.590;8.854;2023-06-22T02:15:44;0.50;;;0.50;;
18224;SDS011;9237;48.590;8.854;2023-06-22T02:18:13;0.50;;;0.50;;
18224;SDS011;9237;48.590;8.854;2023-06-22T02:20:40;0.60;;;0.60;;
18224;SDS011;9237;48.590;8.854;2023-06-22T02:23:07;0.50;;;0.50;;
18224;SDS011;9237;48.590;8.854;2023-06-22T02:25:35;0.60;;;0.60;;
18224;SDS011;9237;48.590;8.854;2023-06-22T02:28:02;0.50;;;0.50;;
18224;SDS011;9237;48.590;8.854;2023-06-22T02:30:30;0.60;;;0.60;;
18224;SDS011;9237;48.590;8.854;2023-06-22T02:32:57;0.60;;;0.60;;
18224;SDS011;9237;48.590;8.854;2023-06-22T02:35:26;0.60;;;0.60;;
18224;SDS011;9237;48.590;8.854;2023-06-22T02:37:56;0.60;;;0.60;;
18224;SDS011;9237;48.590;8.854;2023-06-22T02:40:24;0.60;;;0.60;;
18224;SDS011;9237;48.590;8.854;2023-06-22T02:42:51;0.60;;;0.60;;
18224;SDS011;9237;48.590;8.854;2023-06-22T02:45:18;0.60;;;0.60;;
18224;SDS011;9237;48.590;8.854;2023-06-22T02:47:45;0.50;;;0.50;;
18224;SDS011;9237;48.590;8.854;2023-06-22T02:50:12;0.60;;;0.60;;
18224;SDS011;9237;48.590;8.854;2023-06-22T02:52:40;0.60;;;0.60;;
18224;SDS011;9237;48.590;8.854;2023-06-22T02:55:08;0.60;;;0.60;;
18224;SDS011;9237;48.590;8.854;2023-06-22T02:57:35;0.53;;;0.53;;
18224;SDS011;9237;48.590;8.854;2023-06-22T03:00:02;0.60;;;0.60;;
18224;SDS011;9237;48.590;8.854;2023-06-22T03:02:41;0.60;;;0.60;;
18224;SDS011;9237;48.590;8.854;2023-06-22T03:05:08;0.60;;;0.60;;
18224;SDS011;9237;48.590;8.854;2023-06-22T03:07:43;0.60;;;0.60;;
18224;SDS011;9237;48.590;8.854;2023-06-22T03:10:10;0.60;;;0.60;;
18224;SDS011;9237;48.590;8.854;2023-06-22T03:12:38;0.60;;;0.60;;
18224;SDS011;9237;48.590;8.854;2023-06-22T03:15:06;0.60;;;0.60;;
18224;SDS011;9237;48.590;8.854;2023-06-22T03:17:34;0.60;;;0.60;;
18224;SDS011;9237;48.590;8.854;2023-06-22T03:20:03;0.60;;;0.60;;
18224;SDS011;9237;48.590;8.854;2023-06-22T03:22:34;0.60;;;0.60;;
18224;SDS011;9237;48.590;8.854;2023-06-22T03:25:02;0.60;;;0.60;;
18224;SDS011;9237;48.590;8.854;2023-06-22T03:27:29;0.60;;;0.60;;
18224;SDS011;9237;48.590;8.854;2023-06-22T03:29:56;0.60;;;0.60;;
18224;SDS011;9237;48.590;8.854;2023-06-22T03:32:23;0.60;;;0.60;;
18224;SDS011;9237;48.590;8.854;2023-06-22T03:34:53;0.60;;;0.60;;
18224;SDS011;9237;48.590;8.854;2023-06-22T03:37:23;0.60;;;0.60;;
18224;SDS011;9237;48.590;8.854;2023-06-22T03:39:50;0.60;;;0.60;;
18224;SDS011;9237;48.590;8.854;2023-06-22T03:42:18;0.60;;;0.60;;
18224;SDS011;9237;48.590;8.854;2023-06-22T03:44:45;0.60;;;0.60;;
18224;SDS011;9237;48.590;8.854;2023-06-22T03:47:13;0.60;;;0.60;;
18224;SDS011;9237;48.590;8.854;2023-06-22T03:49:39;0.60;;;0.60;;
18224;SDS011;9237;48.590;8.854;2023-06-22T03:52:06;0.60;;;0.60;;
18224;SDS011;9237;48.590;8.854;2023-06-22T03:54:35;0.60;;;0.60;;
18224;SDS011;9237;48.590;8.854;2023-06-22T03:57:02;0.60;;;0.60;;
18224;SDS011;9237;48.590;8.854;2023-06-22T03:59:31;0.60;;;0.60;;
18224;SDS011;9237;48.590;8.854;2023-06-22T04:01:58;0.60;;;0.60;;
18224;SDS011;9237;48.590;8.854;2023-06-22T04:04:25;0.60;;;0.60;;
18224;SDS011;9237;48.590;8.854;2023-06-22T04:06:52;0.60;;;0.60;;
18224;SDS011;9237;48.590;8.854;2023-06-22T04:09:19;0.60;;;0.60;;
18224;SDS011;9237;48.590;8.854;2023-06-22T04:11:47;0.70;;;0.70;;
18224;SDS011;9237;48.590;8.854;2023-06-22T04:14:14;0.60;;;0.60;;
18224;SDS011;9237;48.590;8.854;2023-06-22T04:16:42;0.60;;;0.60;;
18224;SDS011;9237;48.590;8.854;2023-06-22T04:19:09;0.60;;;0.60;;
18224;SDS011;9237;48.590;8.854;2023-06-22T04:21:41;0.60;;;0.60;;
18224;SDS011;9237;48.590;8.854;2023-06-22T04:24:07;0.60;;;0.60;;
18224;SDS011;9237;48.590;8.854;2023-06-22T04:26:34;0.60;;;0.60;;
18224;SDS011;9237;48.590;8.854;2023-06-22T04:29:02;0.60;;;0.60;;
18224;SDS011;9237;48.590;8.854;2023-06-22T04:31:30;0.60;;;0.60;;
18224;SDS011;9237;48.590;8.854;2023-06-22T04:34:03;0.57;;;0.57;;
18224;SDS011;9237;48.590;8.854;2023-06-22T04:36:33;0.60;;;0.60;;
18224;SDS011;9237;48.590;8.854;2023-06-22T04:39:03;0.60;;;0.60;;
18224;SDS011;9237;48.590;8.854;2023-06-22T04:41:31;0.60;;;0.60;;
18224;SDS011;9237;48.590;8.854;2023-06-22T04:44:06;0.60;;;0.60;;
18224;SDS011;9237;48.590;8.854;2023-06-22T04:46:34;0.60;;;0.60;;
18224;SDS011;9237;48.590;8.854;2023-06-22T04:49:04;0.60;;;0.60;;
18224;SDS011;9237;48.590;8.854;2023-06-22T04:51:37;0.60;;;0.60;;
18224;SDS011;9237;48.590;8.854;2023-06-22T04:54:05;0.50;;;0.50;;
18224;SDS011;9237;48.590;8.854;2023-06-22T04:56:32;0.60;;;0.60;;
18224;SDS011;9237;48.590;8.854;2023-06-22T04:58:59;0.50;;;0.50;;
18224;SDS011;9237;48.590;8.854;2023-06-22T05:01:28;0.60;;;0.60;;
18224;SDS011;9237;48.590;8.854;2023-06-22T05:03:56;0.50;;;0.50;;
18224;SDS011;9237;48.590;8.854;2023-06-22T05:06:27;0.50;;;0.50;;
18224;SDS011;9237;48.590;8.854;2023-06-22T05:08:54;0.60;;;0.60;;
18224;SDS011;9237;48.590;8.854;2023-06-22T05:11:23;0.50;;;0.50;;
18224;SDS011;9237;48.590;8.854;2023-06-22T05:13:50;0.55;;;0.55;;
18224;SDS011;9237;48.590;8.854;2023-06-22T05:16:17;0.60;;;0.60;;
18224;SDS011;9237;48.590;8.854;2023-06-22T05:18:49;0.50;;;0.50;;
18224;SDS011;9237;48.590;8.854;2023-06-22T05:21:17;0.50;;;0.50;;
18224;SDS011;9237;48.590;8.854;2023-06-22T05:23:45;0.60;;;0.60;;
18224;SDS011;9237;48.590;8.854;2023-06-22T05:26:12;0.52;;;0.52;;
18224;SDS011;9237;48.590;8.854;2023-06-22T05:28:39;0.50;;;0.50;;
18224;SDS011;9237;48.590;8.854;2023-06-22T05:31:05;0.50;;;0.50;;
18224;SDS011;9237;48.590;8.854;2023-06-22T05:33:32;0.60;;;0.60;;
18224;SDS011;9237;48.590;8.854;2023-06-22T05:35:59;0.50;;;0.50;;
18224;SDS011;9237;48.590;8.854;2023-06-22T05:38:26;0.50;;;0.50;;
18224;SDS011;9237;48.590;8.854;2023-06-22T05:40:54;0.50;;;0.50;;
18224;SDS011;9237;48.590;8.854;2023-06-22T05:43:21;0.50;;;0.50;;
18224;SDS011;9237;48.590;8.854;2023-06-22T05:45:47;0.50;;;0.50;;
18224;SDS011;9237;48.590;8.854;2023-06-22T05:48:14;0.50;;;0.50;;
18224;SDS011;9237;48.590;8.854;2023-06-22T05:50:41;0.50;;;0.50;;
18224;SDS011;9237;48.590;8.854;2023-06-22T05:53:08;0.50;;;0.50;;
18224;SDS011;9237;48.590;8.854;2023-06-22T05:55:35;0.50;;;0.50;;
18224;SDS011;9237;48.590;8.854;2023-06-22T05:58:03;0.50;;;0.50;;
18224;SDS011;9237;48.590;8.854;2023-06-22T06:00:30;0.50;;;0.50;;
18224;SDS011;9237;48.590;8.854;2023-06-22T06:02:57;0.50;;;0.50;;
18224;SDS011;9237;48.590;8.854;2023-06-22T06:05:28;0.50;;;0.50;;
18224;SDS011;9237;48.590;8.854;2023-06-22T06:07:55;0.50;;;0.50;;
18224;SDS011;9237;48.590;8.854;2023-06-22T06:10:22;0.50;;;0.50;;
18224;SDS011;9237;48.590;8.854;2023-06-22T06:12:49;0.50;;;0.50;;
18224;SDS011;9237;48.590;8.854;2023-06-22T06:15:17;0.40;;;0.40;;
18224;SDS011;9237;48.590;8.854;2023-06-22T06:17:47;0.50;;;0.50;;
18224;SDS011;9237;48.590;8.854;2023-06-22T06:20:14;0.50;;;0.50;;
18224;SDS011;9237;48.590;8.854;2023-06-22T06:22:41;0.50;;;0.50;;
18224;SDS011;9237;48.590;8.854;2023-06-22T06:25:09;0.40;;;0.40;;
18224;SDS011;9237;48.590;8.854;2023-06-22T06:27:40;0.50;;;0.50;;
18224;SDS011;9237;48.590;8.854;2023-06-22T06:30:08;0.40;;;0.40;;
18224;SDS011;9237;48.590;8.854;2023-06-22T06:32:37;0.50;;;0.50;;
18224;SDS011;9237;48.590;8.854;2023-06-22T06:35:05;0.40;;;0.40;;
18224;SDS011;9237;48.590;8.854;2023-06-22T06:37:33;0.40;;;0.40;;
18224;SDS011;9237;48.590;8.854;2023-06-22T06:40:01;0.45;;;0.45;;
18224;SDS011;9237;48.590;8.854;2023-06-22T06:42:30;0.40;;;0.40;;
18224;SDS011;9237;48.590;8.854;2023-06-22T06:44:57;0.40;;;0.40;;
18224;SDS011;9237;48.590;8.854;2023-06-22T06:47:24;0.40;;;0.40;;
18224;SDS011;9237;48.590;8.854;2023-06-22T06:49:52;0.40;;;0.40;;
18224;SDS011;9237;48.590;8.854;2023-06-22T06:52:19;0.40;;;0.40;;
18224;SDS011;9237;48.590;8.854;2023-06-22T06:54:45;0.40;;;0.40;;
18224;SDS011;9237;48.590;8.854;2023-06-22T06:57:12;0.40;;;0.40;;
18224;SDS011;9237;48.590;8.854;2023-06-22T06:59:40;0.40;;;0.40;;
18224;SDS011;9237;48.590;8.854;2023-06-22T07:02:07;0.40;;;0.40;;
18224;SDS011;9237;48.590;8.854;2023-06-22T07:04:34;0.40;;;0.40;;
18224;SDS011;9237;48.590;8.854;2023-06-22T07:07:02;0.38;;;0.38;;
18224;SDS011;9237;48.590;8.854;2023-06-22T07:09:29;0.30;;;0.30;;
18224;SDS011;9237;48.590;8.854;2023-06-22T07:11:56;0.40;;;0.40;;
18224;SDS011;9237;48.590;8.854;2023-06-22T07:14:22;0.40;;;0.40;;
18224;SDS011;9237;48.590;8.854;2023-06-22T07:16:49;0.30;;;0.30;;
18224;SDS011;9237;48.590;8.854;2023-06-22T07:19:16;0.30;;;0.30;;
18224;SDS011;9237;48.590;8.854;2023-06-22T07:21:51;0.30;;;0.30;;
18224;SDS011;9237;48.590;8.854;2023-06-22T07:24:20;0.38;;;0.38;;
18224;SDS011;9237;48.590;8.854;2023-06-22T07:26:46;0.30;;;0.30;;
18224;SDS011;9237;48.590;8.854;2023-06-22T07:29:15;0.30;;;0.30;;
18224;SDS011;9237;48.590;8.854;2023-06-22T07:31:41;0.30;;;0.30;;
18224;SDS011;9237;48.590;8.854;2023-06-22T07:34:08;0.30;;;0.30;;
18224;SDS011;9237;48.590;8.854;2023-06-22T07:36:35;0.30;;;0.30;;
18224;SDS011;9237;48.590;8.854;2023-06-22T07:39:02;0.30;;;0.30;;
18224;SDS011;9237;48.590;8.854;2023-06-22T07:41:30;0.30;;;0.30;;
18224;SDS011;9237;48.590;8.854;2023-06-22T07:43:57;0.30;;;0.30;;
18224;SDS011;9237;48.590;8.854;2023-06-22T07:46:24;0.30;;;0.30;;
18224;SDS011;9237;48.590;8.854;2023-06-22T07:48:51;0.30;;;0.30;;
18224;SDS011;9237;48.590;8.854;2023-06-22T07:51:17;0.30;;;0.30;;
18224;SDS011;9237;48.590;8.854;2023-06-22T07:53:44;0.30;;;0.30;;
18224;SDS011;9237;48.590;8.854;2023-06-22T07:56:11;0.30;;;0.30;;
18224;SDS011;9237;48.590;8.854;2023-06-22T07:58:39;0.30;;;0.30;;
18224;SDS011;9237;48.590;8.854;2023-06-22T08:01:06;0.30;;;0.30;;
18224;SDS011;9237;48.590;8.854;2023-06-22T08:03:33;0.20;;;0.20;;
18224;SDS011;9237;48.590;8.854;2023-06-22T08:06:00;0.30;;;0.30;;
18224;SDS011;9237;48.590;8.854;2023-06-22T08:08:26;0.30;;;0.30;;
18224;SDS011;9237;48.590;8.854;2023-06-22T08:10:53;0.30;;;0.30;;
18224;SDS011;9237;48.590;8.854;2023-06-22T08:13:20;0.30;;;0.30;;
18224;SDS011;9237;48.590;8.854;2023-06-22T08:15:49;0.30;;;0.30;;
18224;SDS011;9237;48.590;8.854;2023-06-22T08:18:15;0.30;;;0.30;;
18224;SDS011;9237;48.590;8.854;2023-06-22T08:20:42;0.40;;;0.40;;
18224;SDS011;9237;48.590;8.854;2023-06-22T08:23:09;0.30;;;0.30;;
18224;SDS011;9237;48.590;8.854;2023-06-22T08:25:36;0.30;;;0.30;;
18224;SDS011;9237;48.590;8.854;2023-06-22T08:28:03;0.30;;;0.30;;
18224;SDS011;9237;48.590;8.854;2023-06-22T08:30:30;0.30;;;0.30;;
18224;SDS011;9237;48.590;8.854;2023-06-22T08:32:58;0.30;;;0.30;;
18224;SDS011;9237;48.590;8.854;2023-06-22T08:35:25;0.30;;;0.30;;
18224;SDS011;9237;48.590;8.854;2023-06-22T08:37:52;0.30;;;0.30;;
18224;SDS011;9237;48.590;8.854;2023-06-22T08:40:19;0.30;;;0.30;;
18224;SDS011;9237;48.590;8.854;2023-06-22T08:42:47;0.30;;;0.30;;
18224;SDS011;9237;48.590;8.854;2023-06-22T08:45:14;0.30;;;0.30;;
18224;SDS011;9237;48.590;8.854;2023-06-22T08:47:41;0.30;;;0.30;;
18224;SDS011;9237;48.590;8.854;2023-06-22T08:50:10;0.30;;;0.30;;
18224;SDS011;9237;48.590;8.854;2023-06-22T08:52:38;0.30;;;0.30;;
18224;SDS011;9237;48.590;8.854;2023-06-22T08:55:07;0.30;;;0.30;;
18224;SDS011;9237;48.590;8.854;2023-06-22T08:57:34;0.30;;;0.30;;
18224;SDS011;9237;48.590;8.854;2023-06-22T09:00:04;0.20;;;0.20;;
18224;SDS011;9237;48.590;8.854;2023-06-22T09:02:40;0.20;;;0.20;;
18224;SDS011;9237;48.590;8.854;2023-06-22T09:05:07;0.20;;;0.20;;
18224;SDS011;9237;48.590;8.854;2023-06-22T09:07:35;0.20;;;0.20;;
18224;SDS011;9237;48.590;8.854;2023-06-22T09:10:02;0.20;;;0.20;;
18224;SDS011;9237;48.590;8.854;2023-06-22T09:12:30;0.25;;;0.25;;
18224;SDS011;9237;48.590;8.854;2023-06-22T09:14:58;0.20;;;0.20;;
18224;SDS011;9237;48.590;8.854;2023-06-22T09:17:26;0.20;;;0.20;;
18224;SDS011;9237;48.590;8.854;2023-06-22T09:19:53;0.20;;;0.20;;
18224;SDS011;9237;48.590;8.854;2023-06-22T09:22:20;0.20;;;0.20;;
18224;SDS011;9237;48.590;8.854;2023-06-22T09:24:48;0.20;;;0.20;;
18224;SDS011;9237;48.590;8.854;2023-06-22T09:27:15;0.20;;;0.20;;
18224;SDS011;9237;48.590;8.854;2023-06-22T09:29:42;0.20;;;0.20;;
18224;SDS011;9237;48.590;8.854;2023-06-22T09:32:09;0.20;;;0.20;;
18224;SDS011;9237;48.590;8.854;2023-06-22T09:34:35;0.20;;;0.20;;
18224;SDS011;9237;48.590;8.854;2023-06-22T09:37:02;0.20;;;0.20;;
18224;SDS011;9237;48.590;8.854;2023-06-22T09:39:29;0.20;;;0.20;;
18224;SDS011;9237;48.590;8.854;2023-06-22T09:41:59;0.20;;;0.20;;
18224;SDS011;9237;48.590;8.854;2023-06-22T09:44:26;0.20;;;0.20;;
18224;SDS011;9237;48.590;8.854;2023-06-22T09:46:53;0.10;;;0.10;;
18224;SDS011;9237;48.590;8.854;2023-06-22T09:49:19;0.20;;;0.20;;
18224;SDS011;9237;48.590;8.854;2023-06-22T09:51:46;0.28;;;0.28;;
18224;SDS011;9237;48.590;8.854;2023-06-22T09:54:14;0.20;;;0.20;;
18224;SDS011;9237;48.590;8.854;2023-06-22T09:56:41;0.20;;;0.20;;
18224;SDS011;9237;48.590;8.854;2023-06-22T09:59:09;0.20;;;0.20;;
18224;SDS011;9237;48.590;8.854;2023-06-22T10:01:36;0.20;;;0.20;;
18224;SDS011;9237;48.590;8.854;2023-06-22T10:04:03;0.20;;;0.20;;
18224;SDS011;9237;48.590;8.854;2023-06-22T10:06:30;0.20;;;0.20;;
18224;SDS011;9237;48.590;8.854;2023-06-22T10:08:56;0.20;;;0.20;;
18224;SDS011;9237;48.590;8.854;2023-06-22T10:11:23;0.20;;;0.20;;
18224;SDS011;9237;48.590;8.854;2023-06-22T10:13:54;0.20;;;0.20;;
18224;SDS011;9237;48.590;8.854;2023-06-22T10:16:23;0.20;;;0.20;;
18224;SDS011;9237;48.590;8.854;2023-06-22T10:18:56;0.20;;;0.20;;
18224;SDS011;9237;48.590;8.854;2023-06-22T10:21:22;0.20;;;0.20;;
18224;SDS011;9237;48.590;8.854;2023-06-22T10:23:49;0.20;;;0.20;;
18224;SDS011;9237;48.590;8.854;2023-06-22T10:26:16;0.20;;;0.20;;
18224;SDS011;9237;48.590;8.854;2023-06-22T10:28:43;0.20;;;0.20;;
18224;SDS011;9237;48.590;8.854;2023-06-22T10:31:09;0.20;;;0.20;;
18224;SDS011;9237;48.590;8.854;2023-06-22T10:33:37;0.13;;;0.13;;
18224;SDS011;9237;48.590;8.854;2023-06-22T10:36:06;0.20;;;0.20;;
18224;SDS011;9237;48.590;8.854;2023-06-22T10:38:33;0.20;;;0.20;;
18224;SDS011;9237;48.590;8.854;2023-06-22T10:41:00;0.20;;;0.20;;
18224;SDS011;9237;48.590;8.854;2023-06-22T10:43:27;0.20;;;0.20;;
18224;SDS011;9237;48.590;8.854;2023-06-22T10:45:54;0.20;;;0.20;;
18224;SDS011;9237;48.590;8.854;2023-06-22T10:48:21;0.20;;;0.20;;
18224;SDS011;9237;48.590;8.854;2023-06-22T10:50:49;0.20;;;0.20;;
18224;SDS011;9237;48.590;8.854;2023-06-22T10:53:15;0.20;;;0.20;;
18224;SDS011;9237;48.590;8.854;2023-06-22T10:55:42;0.20;;;0.20;;
18224;SDS011;9237;48.590;8.854;2023-06-22T10:58:09;0.20;;;0.20;;
18224;SDS011;9237;48.590;8.854;2023-06-22T11:00:36;0.20;;;0.20;;
18224;SDS011;9237;48.590;8.854;2023-06-22T11:03:02;0.20;;;0.20;;
18224;SDS011;9237;48.590;8.854;2023-06-22T11:05:29;0.20;;;0.20;;
18224;SDS011;9237;48.590;8.854;2023-06-22T11:07:57;0.20;;;0.20;;
18224;SDS011;9237;48.590;8.854;2023-06-22T11:10:24;0.20;;;0.20;;
18224;SDS011;9237;48.590;8.854;2023-06-22T11:12:52;0.20;;;0.20;;
18224;SDS011;9237;48.590;8.854;2023-06-22T11:15:20;0.20;;;0.20;;
18224;SDS011;9237;48.590;8.854;2023-06-22T11:17:47;0.20;;;0.20;;
18224;SDS011;9237;48.590;8.854;2023-06-22T11:20:14;0.20;;;0.20;;
18224;SDS011;9237;48.590;8.854;2023-06-22T11:22:41;0.20;;;0.20;;
18224;SDS011;9237;48.590;8.854;2023-06-22T11:25:09;0.20;;;0.20;;
18224;SDS011;9237;48.590;8.854;2023-06-22T11:27:37;0.20;;;0.20;;
18224;SDS011;9237;48.590;8.854;2023-06-22T11:30:05;0.20;;;0.20;;
18224;SDS011;9237;48.590;8.854;2023-06-22T11:32:33;0.20;;;0.20;;
18224;SDS011;9237;48.590;8.854;2023-06-22T11:35:00;0.22;;;0.22;;
18224;SDS011;9237;48.590;8.854;2023-06-22T11:37:26;0.20;;;0.20;;
18224;SDS011;9237;48.590;8.854;2023-06-22T11:39:53;0.20;;;0.20;;
18224;SDS011;9237;48.590;8.854;2023-06-22T11:42:22;0.20;;;0.20;;
18224;SDS011;9237;48.590;8.854;2023-06-22T11:44:50;0.20;;;0.20;;
18224;SDS011;9237;48.590;8.854;2023-06-22T11:47:17;0.20;;;0.20;;
18224;SDS011;9237;48.590;8.854;2023-06-22T11:49:43;0.20;;;0.20;;
18224;SDS011;9237;48.590;8.854;2023-06-22T11:52:10;0.30;;;0.30;;
18224;SDS011;9237;48.590;8.854;2023-06-22T11:54:37;0.30;;;0.30;;
18224;SDS011;9237;48.590;8.854;2023-06-22T11:57:04;0.30;;;0.30;;
18224;SDS011;9237;48.590;8.854;2023-06-22T11:59:32;0.30;;;0.30;;
18224;SDS011;9237;48.590;8.854;2023-06-22T12:01:59;0.30;;;0.30;;
18224;SDS011;9237;48.590;8.854;2023-06-22T12:04:26;0.30;;;0.30;;
18224;SDS011;9237;48.590;8.854;2023-06-22T12:06:53;0.30;;;0.30;;
18224;SDS011;9237;48.590;8.854;2023-06-22T12:09:19;0.30;;;0.30;;
18224;SDS011;9237;48.590;8.854;2023-06-22T12:11:46;0.30;;;0.30;;
18224;SDS011;9237;48.590;8.854;2023-06-22T12:14:13;0.30;;;0.30;;
18224;SDS011;9237;48.590;8.854;2023-06-22T12:16:41;0.30;;;0.30;;
18224;SDS011;9237;48.590;8.854;2023-06-22T12:19:09;0.30;;;0.30;;
18224;SDS011;9237;48.590;8.854;2023-06-22T12:21:36;0.30;;;0.30;;
18224;SDS011;9237;48.590;8.854;2023-06-22T12:24:04;0.30;;;0.30;;
18224;SDS011;9237;48.590;8.854;2023-06-22T12:26:31;0.30;;;0.30;;
18224;SDS011;9237;48.590;8.854;2023-06-22T12:28:58;0.30;;;0.30;;
18224;SDS011;9237;48.590;8.854;2023-06-22T12:31:24;0.30;;;0.30;;
18224;SDS011;9237;48.590;8.854;2023-06-22T12:33:52;0.30;;;0.30;;
18224;SDS011;9237;48.590;8.854;2023-06-22T12:36:19;0.30;;;0.30;;
18224;SDS011;9237;48.590;8.854;2023-06-22T12:38:46;0.30;;;0.30;;
18224;SDS011;9237;48.590;8.854;2023-06-22T12:41:13;0.30;;;0.30;;
18224;SDS011;9237;48.590;8.854;2023-06-22T12:43:40;0.30;;;0.30;;
18224;SDS011;9237;48.590;8.854;2023-06-22T12:46:06;0.30;;;0.30;;
18224;SDS011;9237;48.590;8.854;2023-06-22T12:48:33;0.30;;;0.30;;
18224;SDS011;9237;48.590;8.854;2023-06-22T12:51:07;0.30;;;0.30;;
18224;SDS011;9237;48.590;8.854;2023-06-22T12:53:35;0.20;;;0.20;;
18224;SDS011;9237;48.590;8.854;2023-06-22T12:56:02;0.22;;;0.22;;
18224;SDS011;9237;48.590;8.854;2023-06-22T12:58:28;0.30;;;0.30;;
18224;SDS011;9237;48.590;8.854;2023-06-22T13:00:55;0.22;;;0.22;;
18224;SDS011;9237;48.590;8.854;2023-06-22T13:03:22;0.20;;;0.20;;
18224;SDS011;9237;48.590;8.854;2023-06-22T13:05:50;0.30;;;0.30;;
18224;SDS011;9237;48.590;8.854;2023-06-22T13:08:18;0.30;;;0.30;;
18224;SDS011;9237;48.590;8.854;2023-06-22T13:10:45;0.25;;;0.25;;
18224;SDS011;9237;48.590;8.854;2023-06-22T13:13:12;0.20;;;0.20;;
18224;SDS011;9237;48.590;8.854;2023-06-22T13:15:39;0.30;;;0.30;;
18224;SDS011;9237;48.590;8.854;2023-06-22T13:18:05;0.25;;;0.25;;
18224;SDS011;9237;48.590;8.854;2023-06-22T13:20:32;0.30;;;0.30;;
18224;SDS011;9237;48.590;8.854;2023-06-22T13:22:59;0.20;;;0.20;;
18224;SDS011;9237;48.590;8.854;2023-06-22T13:25:27;0.20;;;0.20;;
18224;SDS011;9237;48.590;8.854;2023-06-22T13:27:54;0.30;;;0.30;;
18224;SDS011;9237;48.590;8.854;2023-06-22T13:30:21;0.30;;;0.30;;
18224;SDS011;9237;48.590;8.854;2023-06-22T13:32:48;0.30;;;0.30;;
18224;SDS011;9237;48.590;8.854;2023-06-22T13:35:15;0.20;;;0.20;;
18224;SDS011;9237;48.590;8.854;2023-06-22T13:37:41;0.25;;;0.25;;
18224;SDS011;9237;48.590;8.854;2023-06-22T13:40:08;0.30;;;0.30;;
18224;SDS011;9237;48.590;8.854;2023-06-22T13:42:37;0.28;;;0.28;;
18224;SDS011;9237;48.590;8.854;2023-06-22T13:45:04;0.30;;;0.30;;
18224;SDS011;9237;48.590;8.854;2023-06-22T13:47:32;0.20;;;0.20;;
18224;SDS011;9237;48.590;8.854;2023-06-22T13:49:59;0.30;;;0.30;;
18224;SDS011;9237;48.590;8.854;2023-06-22T13:52:26;0.22;;;0.22;;
18224;SDS011;9237;48.590;8.854;2023-06-22T13:54:52;0.20;;;0.20;;
18224;SDS011;9237;48.590;8.854;2023-06-22T13:57:19;0.20;;;0.20;;
18224;SDS011;9237;48.590;8.854;2023-06-22T13:59:47;0.20;;;0.20;;
18224;SDS011;9237;48.590;8.854;2023-06-22T14:02:14;0.20;;;0.20;;
18224;SDS011;9237;48.590;8.854;2023-06-22T14:04:41;0.20;;;0.20;;
18224;SDS011;9237;48.590;8.854;2023-06-22T14:07:08;0.20;;;0.20;;
18224;SDS011;9237;48.590;8.854;2023-06-22T14:09:34;0.20;;;0.20;;
18224;SDS011;9237;48.590;8.854;2023-06-22T14:12:04;0.20;;;0.20;;
18224;SDS011;9237;48.590;8.854;2023-06-22T14:14:32;0.20;;;0.20;;
18224;SDS011;9237;48.590;8.854;2023-06-22T14:17:00;0.28;;;0.28;;
18224;SDS011;9237;48.590;8.854;2023-06-22T14:19:27;0.20;;;0.20;;
18224;SDS011;9237;48.590;8.854;2023-06-22T14:21:54;0.20;;;0.20;;
18224;SDS011;9237;48.590;8.854;2023-06-22T14:24:21;0.20;;;0.20;;
18224;SDS011;9237;48.590;8.854;2023-06-22T14:26:48;0.20;;;0.20;;
18224;SDS011;9237;48.590;8.854;2023-06-22T14:29:15;0.20;;;0.20;;
18224;SDS011;9237;48.590;8.854;2023-06-22T14:31:44;0.20;;;0.20;;
18224;SDS011;9237;48.590;8.854;2023-06-22T14:34:12;0.22;;;0.22;;
18224;SDS011;9237;48.590;8.854;2023-06-22T14:36:40;0.20;;;0.20;;
18224;SDS011;9237;48.590;8.854;2023-06-22T14:39:07;0.20;;;0.20;;
18224;SDS011;9237;48.590;8.854;2023-06-22T14:41:34;0.30;;;0.30;;
18224;SDS011;9237;48.590;8.854;2023-06-22T14:44:00;0.30;;;0.30;;
18224;SDS011;9237;48.590;8.854;2023-06-22T14:46:27;0.30;;;0.30;;
18224;SDS011;9237;48.590;8.854;2023-06-22T14:48:54;0.22;;;0.22;;
18224;SDS011;9237;48.590;8.854;2023-06-22T14:51:22;0.20;;;0.20;;
18224;SDS011;9237;48.590;8.854;2023-06-22T14:53:49;0.20;;;0.20;;
18224;SDS011;9237;48.590;8.854;2023-06-22T14:56:16;0.20;;;0.20;;
18224;SDS011;9237;48.590;8.854;2023-06-22T14:58:43;0.30;;;0.30;;
18224;SDS011;9237;48.590;8.854;2023-06-22T15:01:11;0.30;;;0.30;;
18224;SDS011;9237;48.590;8.854;2023-06-22T15:03:38;0.22;;;0.22;;